createdAt,value
2018-11-05T00:00:51.088Z,129.63
2018-11-05T00:01:54.800Z,125.90
2018-11-05T00:02:58.411Z,134.73
2018-11-05T00:04:02.025Z,132.80
2018-11-05T00:05:05.712Z,130.70
2018-11-05T00:06:09.303Z,138.33
2018-11-05T00:07:12.885Z,141.60
2018-11-05T00:08:16.476Z,132.23
2018-11-05T00:09:20.072Z,140.27
2018-11-05T00:10:23.661Z,134.20
2018-11-05T00:11:27.295Z,129.43
2018-11-05T00:12:30.896Z,135.67
2018-11-05T00:13:34.470Z,129.67
2018-11-05T00:14:38.071Z,131.57
2018-11-05T00:15:41.650Z,144.33
2018-11-05T00:16:45.239Z,129.77
2018-11-05T00:17:48.827Z,137.83
2018-11-05T00:18:52.626Z,134.30
2018-11-05T00:19:56.225Z,137.70
2018-11-05T00:20:59.820Z,133.13
2018-11-05T00:22:03.407Z,132.70
2018-11-05T00:23:06.995Z,135.33
2018-11-05T00:24:10.600Z,136.23
2018-11-05T00:25:14.462Z,142.83
2018-11-05T00:26:18.056Z,140.50
2018-11-05T00:27:21.703Z,132.43
2018-11-05T00:28:25.260Z,139.90
2018-11-05T00:29:28.880Z,137.10
2018-11-05T00:30:32.468Z,139.90
2018-11-05T00:31:36.247Z,133.67
2018-11-05T00:32:40.107Z,134.27
2018-11-05T00:33:43.703Z,125.67
2018-11-05T00:34:47.306Z,135.47
2018-11-05T00:35:50.935Z,135.00
2018-11-05T00:36:55.403Z,134.37
2018-11-05T00:37:58.999Z,137.87
2018-11-05T00:39:02.665Z,124.23
2018-11-05T00:40:08.062Z,124.30
2018-11-05T00:41:11.654Z,128.17
2018-11-05T00:42:15.251Z,123.97
2018-11-05T00:43:18.843Z,127.13
2018-11-05T00:44:22.434Z,123.33
2018-11-05T00:45:26.107Z,131.27
2018-11-05T00:46:29.707Z,131.53
2018-11-05T00:47:33.264Z,125.43
2018-11-05T00:48:36.859Z,129.33
2018-11-05T00:49:40.455Z,131.77
2018-11-05T00:50:44.048Z,126.07
2018-11-05T00:51:47.639Z,127.50
2018-11-05T00:52:51.249Z,126.90
2018-11-05T00:53:54.839Z,126.73
2018-11-05T00:54:58.470Z,120.80
2018-11-05T00:56:02.067Z,125.80
2018-11-05T00:57:05.680Z,128.17
2018-11-05T00:58:09.287Z,131.30
2018-11-05T00:59:13.012Z,122.73
2018-11-05T01:00:17.254Z,121.70
2018-11-05T01:01:20.842Z,119.37
2018-11-05T01:02:24.440Z,120.40
2018-11-05T01:03:28.074Z,127.77
2018-11-05T01:04:31.635Z,125.67
2018-11-05T01:05:35.223Z,126.93
2018-11-05T01:06:38.811Z,115.33
2018-11-05T01:07:43.195Z,120.53
2018-11-05T01:08:46.783Z,117.40
2018-11-05T01:09:50.382Z,117.63
2018-11-05T01:10:53.971Z,117.73
2018-11-05T01:11:57.573Z,118.17
2018-11-05T01:13:01.164Z,124.23
2018-11-05T01:14:05.105Z,117.80
2018-11-05T01:15:11.174Z,120.40
2018-11-05T01:16:14.789Z,120.10
2018-11-05T01:17:18.436Z,113.33
2018-11-05T01:18:22.005Z,115.97
2018-11-05T01:19:25.599Z,122.30
2018-11-05T01:20:29.208Z,112.70
2018-11-05T01:21:32.799Z,121.37
2018-11-05T01:22:36.536Z,114.40
2018-11-05T01:23:40.127Z,114.87
2018-11-05T01:24:43.779Z,116.80
2018-11-05T01:25:47.347Z,123.23
2018-11-05T01:26:50.945Z,126.97
2018-11-05T01:27:54.535Z,119.23
2018-11-05T01:28:58.123Z,122.07
2018-11-05T01:30:01.740Z,121.50
2018-11-05T01:31:05.812Z,117.33
2018-11-05T01:32:09.410Z,116.43
2018-11-05T01:33:13.009Z,112.77
2018-11-05T01:34:16.595Z,120.03
2018-11-05T01:35:20.199Z,117.23
2018-11-05T01:36:23.799Z,116.13
2018-11-05T01:37:27.391Z,117.23
2018-11-05T01:38:30.983Z,119.83
2018-11-05T01:39:34.600Z,120.37
2018-11-05T01:40:38.243Z,124.23
2018-11-05T01:41:41.823Z,126.60
2018-11-05T01:42:45.417Z,121.03
2018-11-05T01:43:49.086Z,129.10
2018-11-05T01:44:52.678Z,120.27
2018-11-05T01:45:56.284Z,117.30
2018-11-05T01:46:59.883Z,120.53
2018-11-05T01:48:03.476Z,128.33
2018-11-05T01:49:07.084Z,122.43
2018-11-05T01:50:12.546Z,132.00
2018-11-05T01:51:16.142Z,118.30
2018-11-05T01:52:19.743Z,130.27
2018-11-05T01:53:23.331Z,132.57
2018-11-05T01:54:26.966Z,114.17
2018-11-05T01:55:30.515Z,127.77
2018-11-05T01:56:34.106Z,137.20
2018-11-05T01:57:38.199Z,129.87
2018-11-05T01:58:41.790Z,128.83
2018-11-05T01:59:45.389Z,129.20
2018-11-05T02:00:48.984Z,131.00
2018-11-05T02:01:52.583Z,129.23
2018-11-05T02:02:56.171Z,131.47
2018-11-05T02:03:59.792Z,138.67
2018-11-05T02:05:03.384Z,132.17
2018-11-05T02:06:06.975Z,137.03
2018-11-05T02:07:10.571Z,125.33
2018-11-05T02:08:14.156Z,134.43
2018-11-05T02:09:17.751Z,134.43
2018-11-05T02:10:21.508Z,134.87
2018-11-05T02:11:25.043Z,124.07
2018-11-05T02:12:28.635Z,117.53
2018-11-05T02:13:32.331Z,134.77
2018-11-05T02:14:35.963Z,127.87
2018-11-05T02:15:39.556Z,121.73
2018-11-05T02:16:43.154Z,116.60
2018-11-05T02:17:47.226Z,129.53
2018-11-05T02:18:50.830Z,129.23
2018-11-05T02:19:54.466Z,117.67
2018-11-05T02:20:58.015Z,126.13
2018-11-05T02:22:01.607Z,119.33
2018-11-05T02:23:05.231Z,116.33
2018-11-05T02:24:08.864Z,126.40
2018-11-05T02:25:13.090Z,123.97
2018-11-05T02:26:16.675Z,128.23
2018-11-05T02:27:20.387Z,132.53
2018-11-05T02:28:23.864Z,130.93
2018-11-05T02:29:27.457Z,131.20
2018-11-05T02:30:31.059Z,134.27
2018-11-05T02:31:34.647Z,130.70
2018-11-05T02:32:38.235Z,133.73
2018-11-05T02:33:42.356Z,142.17
2018-11-05T02:34:45.974Z,126.63
2018-11-05T02:35:49.567Z,138.33
2018-11-05T02:36:53.159Z,139.90
2018-11-05T02:37:56.835Z,134.63
2018-11-05T02:39:00.425Z,135.40
2018-11-05T02:40:05.951Z,134.87
2018-11-05T02:41:09.531Z,138.97
2018-11-05T02:42:13.131Z,135.70
2018-11-05T02:43:16.731Z,136.27
2018-11-05T02:44:20.327Z,133.17
2018-11-05T02:45:23.907Z,125.53
2018-11-05T02:46:27.606Z,124.73
2018-11-05T02:47:31.167Z,135.47
2018-11-05T02:48:34.746Z,115.17
2018-11-05T02:49:38.335Z,130.93
2018-11-05T02:50:41.915Z,124.50
2018-11-05T02:51:45.518Z,120.10
2018-11-05T02:52:49.088Z,120.20
2018-11-05T02:53:52.660Z,120.77
2018-11-05T02:54:56.235Z,130.30
2018-11-05T02:55:59.812Z,130.00
2018-11-05T02:57:03.378Z,134.77
2018-11-05T02:58:06.972Z,131.33
2018-11-05T02:59:10.587Z,126.17
2018-11-05T03:00:15.467Z,120.43
2018-11-05T03:01:19.071Z,119.77
2018-11-05T03:02:22.662Z,127.00
2018-11-05T03:03:26.411Z,125.33
2018-11-05T03:04:29.870Z,129.27
2018-11-05T03:05:33.422Z,129.67
2018-11-05T03:06:36.998Z,121.53
2018-11-05T03:07:40.818Z,121.80
2018-11-05T03:08:44.370Z,127.87
2018-11-05T03:09:47.960Z,133.67
2018-11-05T03:10:51.546Z,119.40
2018-11-05T03:11:55.123Z,130.63
2018-11-05T03:12:58.703Z,122.03
2018-11-05T03:14:02.303Z,127.07
2018-11-05T03:15:07.120Z,133.90
2018-11-05T03:16:10.683Z,122.00
2018-11-05T03:17:14.274Z,118.30
2018-11-05T03:18:17.840Z,123.27
2018-11-05T03:19:21.415Z,127.57
2018-11-05T03:20:24.997Z,125.80
2018-11-05T03:21:28.577Z,126.20
2018-11-05T03:22:32.178Z,124.53
2018-11-05T03:23:35.753Z,124.20
2018-11-05T03:24:39.323Z,121.30
2018-11-05T03:25:42.938Z,131.80
2018-11-05T03:26:46.506Z,122.30
2018-11-05T03:27:50.078Z,115.73
2018-11-05T03:28:53.679Z,124.97
2018-11-05T03:29:57.268Z,120.17
2018-11-05T03:31:00.860Z,127.30
2018-11-05T03:32:04.450Z,125.90
2018-11-05T03:33:08.004Z,128.90
2018-11-05T03:34:11.879Z,135.07
2018-11-05T03:35:15.718Z,125.20
2018-11-05T03:36:19.296Z,128.20
2018-11-05T03:37:22.913Z,129.10
2018-11-05T03:38:26.504Z,130.97
2018-11-05T03:39:30.051Z,142.47
2018-11-05T03:40:33.629Z,139.17
2018-11-05T03:41:37.427Z,127.27
2018-11-05T03:42:41.627Z,134.70
2018-11-05T03:43:45.200Z,137.73
2018-11-05T03:44:48.775Z,148.50
2018-11-05T03:45:52.367Z,141.67
2018-11-05T03:46:55.942Z,144.17
2018-11-05T03:47:59.534Z,147.97
2018-11-05T03:49:03.097Z,147.07
2018-11-05T03:50:09.123Z,156.50
2018-11-05T03:51:12.707Z,151.17
2018-11-05T03:52:16.282Z,145.23
2018-11-05T03:53:19.870Z,139.87
2018-11-05T03:54:23.450Z,136.27
2018-11-05T03:55:27.078Z,139.33
2018-11-05T03:56:30.759Z,146.00
2018-11-05T03:57:34.273Z,146.57
2018-11-05T03:58:37.842Z,148.23
2018-11-05T03:59:41.414Z,139.03
2018-11-05T04:00:45.011Z,146.27
2018-11-05T04:01:48.590Z,138.53
2018-11-05T04:02:52.258Z,141.77
2018-11-05T04:03:55.800Z,154.83
2018-11-05T04:04:59.376Z,141.97
2018-11-05T04:06:02.978Z,143.00
2018-11-05T04:07:06.558Z,137.87
2018-11-05T04:08:10.135Z,145.20
2018-11-05T04:09:14.210Z,145.17
2018-11-05T04:10:17.826Z,127.03
2018-11-05T04:11:21.403Z,129.13
2018-11-05T04:12:24.979Z,141.23
2018-11-05T04:13:28.556Z,146.50
2018-11-05T04:14:32.140Z,150.40
2018-11-05T04:15:35.809Z,140.07
2018-11-05T04:16:39.318Z,142.40
2018-11-05T04:17:42.903Z,147.37
2018-11-05T04:18:46.479Z,140.57
2018-11-05T04:19:50.054Z,148.80
2018-11-05T04:20:53.635Z,150.07
2018-11-05T04:21:57.219Z,147.17
2018-11-05T04:23:00.819Z,145.27
2018-11-05T04:24:04.399Z,148.43
2018-11-05T04:25:08.114Z,147.43
2018-11-05T04:26:11.695Z,152.47
2018-11-05T04:27:15.274Z,145.83
2018-11-05T04:28:18.860Z,143.90
2018-11-05T04:29:22.430Z,155.23
2018-11-05T04:30:26.039Z,154.57
2018-11-05T04:31:29.814Z,150.80
2018-11-05T04:32:33.359Z,145.57
2018-11-05T04:33:36.939Z,150.33
2018-11-05T04:34:40.514Z,148.07
2018-11-05T04:35:44.099Z,154.30
2018-11-05T04:36:47.675Z,154.90
2018-11-05T04:37:51.274Z,164.87
2018-11-05T04:38:55.399Z,154.67
2018-11-05T04:39:58.982Z,168.80
2018-11-05T04:41:02.642Z,155.03
2018-11-05T04:42:06.174Z,167.77
2018-11-05T04:43:09.750Z,161.20
2018-11-05T04:44:13.323Z,163.33
2018-11-05T04:45:16.910Z,167.77
2018-11-05T04:46:20.511Z,167.37
2018-11-05T04:47:24.181Z,175.27
2018-11-05T04:48:27.718Z,165.97
2018-11-05T04:49:31.315Z,176.27
2018-11-05T04:50:34.887Z,163.47
2018-11-05T04:51:38.619Z,173.53
2018-11-05T04:52:43.096Z,171.67
2018-11-05T04:53:46.686Z,170.90
2018-11-05T04:54:50.257Z,168.50
2018-11-05T04:55:53.834Z,170.97
2018-11-05T04:56:57.451Z,171.43
2018-11-05T04:58:01.026Z,173.50
2018-11-05T04:59:05.086Z,163.23
2018-11-05T05:00:13.504Z,180.17
2018-11-05T05:01:17.091Z,163.53
2018-11-05T05:02:20.667Z,179.00
2018-11-05T05:03:24.380Z,169.50
2018-11-05T05:04:27.849Z,183.63
2018-11-05T05:05:31.419Z,160.37
2018-11-05T05:06:35.003Z,187.13
2018-11-05T05:07:38.637Z,178.73
2018-11-05T05:08:42.240Z,183.73
2018-11-05T05:09:45.808Z,182.10
2018-11-05T05:10:49.414Z,176.67
2018-11-05T05:11:53.006Z,189.37
2018-11-05T05:12:56.573Z,194.47
2018-11-05T05:14:00.154Z,168.97
2018-11-05T05:15:03.807Z,186.53
2018-11-05T05:16:07.407Z,178.73
2018-11-05T05:17:10.962Z,179.07
2018-11-05T05:18:14.547Z,173.63
2018-11-05T05:19:18.145Z,183.30
2018-11-05T05:20:21.710Z,169.13
2018-11-05T05:21:25.306Z,184.10
2018-11-05T05:22:28.951Z,191.07
2018-11-05T05:23:32.458Z,177.50
2018-11-05T05:24:36.047Z,164.53
2018-11-05T05:25:39.680Z,182.83
2018-11-05T05:26:43.235Z,179.27
2018-11-05T05:27:46.823Z,186.57
2018-11-05T05:28:50.403Z,188.87
2018-11-05T05:29:54.042Z,170.93
2018-11-05T05:30:57.590Z,179.30
2018-11-05T05:32:01.186Z,169.57
2018-11-05T05:33:05.049Z,164.60
2018-11-05T05:34:08.579Z,170.80
2018-11-05T05:35:12.184Z,171.10
2018-11-05T05:36:16.067Z,172.93
2018-11-05T05:37:19.610Z,164.40
2018-11-05T05:38:23.187Z,179.93
2018-11-05T05:39:26.763Z,172.87
2018-11-05T05:40:30.458Z,174.97
2018-11-05T05:41:34.010Z,167.77
2018-11-05T05:42:38.102Z,188.07
2018-11-05T05:43:41.704Z,168.57
2018-11-05T05:44:45.283Z,185.20
2018-11-05T05:45:48.886Z,179.63
2018-11-05T05:46:52.483Z,173.67
2018-11-05T05:47:56.054Z,185.00
2018-11-05T05:48:59.647Z,179.23
2018-11-05T05:50:04.341Z,184.07
2018-11-05T05:51:07.905Z,172.93
2018-11-05T05:52:11.511Z,167.37
2018-11-05T05:53:15.095Z,180.40
2018-11-05T05:54:18.771Z,176.93
2018-11-05T05:55:22.307Z,172.00
2018-11-05T05:56:25.929Z,180.07
2018-11-05T05:57:29.730Z,182.27
2018-11-05T05:58:33.351Z,180.80
2018-11-05T05:59:36.960Z,184.23
2018-11-05T06:00:40.547Z,175.20
2018-11-05T06:01:44.159Z,181.07
2018-11-05T06:02:47.742Z,183.40
2018-11-05T06:03:51.494Z,187.50
2018-11-05T06:04:55.038Z,206.20
2018-11-05T06:05:58.692Z,185.13
2018-11-05T06:07:02.239Z,204.83
2018-11-05T06:08:06.099Z,197.80
2018-11-05T06:09:10.525Z,181.43
2018-11-05T06:10:15.187Z,197.13
2018-11-05T06:11:18.730Z,186.23
2018-11-05T06:12:22.319Z,196.40
2018-11-05T06:13:26.071Z,187.00
2018-11-05T06:14:29.718Z,179.70
2018-11-05T06:15:33.294Z,179.37
2018-11-05T06:16:37.598Z,166.10
2018-11-05T06:17:41.247Z,186.73
2018-11-05T06:18:44.843Z,185.00
2018-11-05T06:19:48.455Z,185.87
2018-11-05T06:20:52.115Z,185.93
2018-11-05T06:21:55.728Z,189.77
2018-11-05T06:22:59.306Z,185.77
2018-11-05T06:24:03.348Z,191.07
2018-11-05T06:25:07.612Z,175.40
2018-11-05T06:26:11.194Z,184.63
2018-11-05T06:27:14.819Z,183.70
2018-11-05T06:28:18.424Z,176.00
2018-11-05T06:29:21.987Z,180.93
2018-11-05T06:30:25.579Z,168.87
2018-11-05T06:31:29.170Z,174.87
2018-11-05T06:32:32.803Z,176.93
2018-11-05T06:33:36.428Z,183.97
2018-11-05T06:34:39.966Z,178.63
2018-11-05T06:35:43.547Z,176.57
2018-11-05T06:36:47.141Z,162.93
2018-11-05T06:37:50.730Z,168.93
2018-11-05T06:38:54.310Z,162.60
2018-11-05T06:39:57.907Z,160.97
2018-11-05T06:41:01.522Z,168.00
2018-11-05T06:42:05.403Z,167.07
2018-11-05T06:43:08.987Z,152.40
2018-11-05T06:44:12.638Z,163.07
2018-11-05T06:45:18.438Z,151.73
2018-11-05T06:46:21.938Z,158.83
2018-11-05T06:47:25.530Z,143.80
2018-11-05T06:48:29.161Z,155.77
2018-11-05T06:49:32.719Z,153.07
2018-11-05T06:50:36.328Z,153.53
2018-11-05T06:51:39.884Z,140.37
2018-11-05T06:52:44.083Z,155.30
2018-11-05T06:53:47.654Z,139.80
2018-11-05T06:54:51.235Z,140.60
2018-11-05T06:55:54.818Z,142.07
2018-11-05T06:56:58.488Z,144.00
2018-11-05T06:58:02.059Z,135.53
2018-11-05T06:59:05.683Z,146.33
2018-11-05T07:00:13.307Z,138.80
2018-11-05T07:01:16.883Z,140.03
2018-11-05T07:02:20.501Z,131.83
2018-11-05T07:03:24.042Z,139.77
2018-11-05T07:04:27.618Z,133.17
2018-11-05T07:05:31.205Z,126.33
2018-11-05T07:06:34.766Z,139.53
2018-11-05T07:07:38.540Z,131.37
2018-11-05T07:08:42.147Z,132.13
2018-11-05T07:09:45.791Z,128.53
2018-11-05T07:10:49.322Z,128.83
2018-11-05T07:11:52.903Z,125.63
2018-11-05T07:12:56.485Z,122.87
2018-11-05T07:14:00.075Z,119.90
2018-11-05T07:15:03.814Z,120.30
2018-11-05T07:16:07.394Z,133.00
2018-11-05T07:17:10.978Z,120.13
2018-11-05T07:18:14.595Z,129.30
2018-11-05T07:19:18.292Z,130.40
2018-11-05T07:20:22.087Z,117.80
2018-11-05T07:21:25.778Z,127.10
2018-11-05T07:22:29.334Z,128.37
2018-11-05T07:23:33.323Z,133.23
2018-11-05T07:24:36.903Z,127.63
2018-11-05T07:25:40.512Z,137.20
2018-11-05T07:26:44.117Z,121.97
2018-11-05T07:27:47.764Z,126.60
2018-11-05T07:28:51.285Z,130.20
2018-11-05T07:29:54.910Z,129.57
2018-11-05T07:30:58.462Z,118.27
2018-11-05T07:32:02.072Z,132.80
2018-11-05T07:33:05.901Z,126.23
2018-11-05T07:34:09.482Z,123.80
2018-11-05T07:35:13.969Z,119.13
2018-11-05T07:36:17.539Z,131.13
2018-11-05T07:37:21.118Z,122.47
2018-11-05T07:38:24.691Z,132.67
2018-11-05T07:39:28.290Z,122.33
2018-11-05T07:40:31.873Z,125.00
2018-11-05T07:41:35.736Z,124.60
2018-11-05T07:42:39.534Z,133.90
2018-11-05T07:43:43.118Z,112.70
2018-11-05T07:44:46.699Z,115.37
2018-11-05T07:45:50.303Z,119.73
2018-11-05T07:46:53.846Z,122.50
2018-11-05T07:47:57.446Z,114.63
2018-11-05T07:49:01.123Z,105.40
2018-11-05T07:50:06.558Z,116.50
2018-11-05T07:51:10.077Z,111.57
2018-11-05T07:52:13.667Z,113.33
2018-11-05T07:53:17.238Z,102.90
2018-11-05T07:54:20.837Z,104.20
2018-11-05T07:55:24.410Z,96.40
2018-11-05T07:56:28.053Z,111.90
2018-11-05T07:57:31.626Z,106.47
2018-11-05T07:58:35.210Z,105.90
2018-11-05T07:59:38.794Z,101.70
2018-11-05T08:00:47.931Z,105.53
2018-11-05T08:01:51.522Z,102.33
2018-11-05T08:02:56.191Z,95.33
2018-11-05T08:03:59.707Z,100.97
2018-11-05T08:05:03.283Z,101.07
2018-11-05T08:06:06.854Z,97.13
2018-11-05T08:07:10.508Z,103.97
2018-11-05T08:08:14.048Z,94.63
2018-11-05T08:09:17.637Z,101.43
2018-11-05T08:10:21.210Z,94.00
2018-11-05T08:11:24.811Z,91.50
2018-11-05T08:12:28.383Z,98.10
2018-11-05T08:13:31.947Z,93.37
2018-11-05T08:14:35.560Z,98.30
2018-11-05T08:15:39.151Z,91.07
2018-11-05T08:16:42.742Z,93.40
2018-11-05T08:17:47.276Z,97.90
2018-11-05T08:18:50.869Z,105.03
2018-11-05T08:19:54.525Z,92.70
2018-11-05T08:20:58.034Z,93.47
2018-11-05T08:22:01.887Z,94.27
2018-11-05T08:23:05.502Z,89.00
2018-11-05T08:24:09.077Z,94.17
2018-11-05T08:25:13.430Z,94.67
2018-11-05T08:26:17.024Z,90.10
2018-11-05T08:27:20.598Z,90.00
2018-11-05T08:28:24.261Z,90.87
2018-11-05T08:29:27.819Z,91.70
2018-11-05T08:30:31.382Z,91.90
2018-11-05T08:31:34.974Z,92.73
2018-11-05T08:32:38.563Z,94.77
2018-11-05T08:33:42.172Z,99.07
2018-11-05T08:34:45.804Z,89.67
2018-11-05T08:35:49.355Z,100.03
2018-11-05T08:36:52.915Z,91.07
2018-11-05T08:37:56.482Z,93.93
2018-11-05T08:39:00.083Z,97.23
2018-11-05T08:40:04.001Z,93.80
2018-11-05T08:41:07.558Z,92.30
2018-11-05T08:42:11.151Z,90.53
2018-11-05T08:43:14.730Z,90.33
2018-11-05T08:44:18.302Z,92.57
2018-11-05T08:45:23.188Z,84.13
2018-11-05T08:46:26.787Z,90.23
2018-11-05T08:47:30.346Z,92.67
2018-11-05T08:48:33.943Z,98.00
2018-11-05T08:49:37.543Z,89.87
2018-11-05T08:50:41.236Z,94.60
2018-11-05T08:51:45.083Z,86.80
2018-11-05T08:52:48.290Z,84.67
2018-11-05T08:53:51.890Z,92.30
2018-11-05T08:54:55.459Z,86.00
2018-11-05T08:55:59.035Z,90.20
2018-11-05T08:57:02.608Z,88.73
2018-11-05T08:58:06.225Z,90.97
2018-11-05T08:59:09.795Z,90.97
2018-11-05T09:00:52.261Z,84.73
2018-11-05T09:01:55.806Z,88.93
2018-11-05T09:02:59.379Z,91.17
2018-11-05T09:04:02.956Z,88.00
2018-11-05T09:05:06.586Z,85.17
2018-11-05T09:06:10.110Z,85.87
2018-11-05T09:07:13.718Z,88.50
2018-11-05T09:08:17.282Z,86.23
2018-11-05T09:09:20.870Z,82.93
2018-11-05T09:10:24.669Z,89.77
2018-11-05T09:11:28.460Z,86.03
2018-11-05T09:12:31.615Z,86.00
2018-11-05T09:13:35.187Z,82.67
2018-11-05T09:14:38.795Z,75.73
2018-11-05T09:15:42.371Z,83.47
2018-11-05T09:16:45.968Z,91.77
2018-11-05T09:17:49.610Z,79.87
2018-11-05T09:18:53.174Z,79.73
2018-11-05T09:19:56.758Z,80.47
2018-11-05T09:21:00.327Z,76.47
2018-11-05T09:22:04.202Z,87.13
2018-11-05T09:23:07.812Z,76.77
2018-11-05T09:24:11.411Z,80.00
2018-11-05T09:25:15.795Z,80.67
2018-11-05T09:26:19.371Z,75.83
2018-11-05T09:27:23.000Z,79.03
2018-11-05T09:28:26.590Z,76.73
2018-11-05T09:29:30.123Z,78.37
2018-11-05T09:30:33.699Z,74.43
2018-11-05T09:31:37.279Z,82.30
2018-11-05T09:32:40.998Z,82.63
2018-11-05T09:33:44.595Z,77.70
2018-11-05T09:34:48.340Z,76.77
2018-11-05T09:35:51.927Z,82.97
2018-11-05T09:36:55.466Z,79.80
2018-11-05T09:37:59.097Z,73.80
2018-11-05T09:39:02.629Z,82.70
2018-11-05T09:40:08.326Z,86.20
2018-11-05T09:41:11.908Z,84.20
2018-11-05T09:42:15.475Z,85.13
2018-11-05T09:43:19.050Z,78.93
2018-11-05T09:44:22.698Z,74.57
2018-11-05T09:45:27.466Z,73.77
2018-11-05T09:46:31.034Z,71.00
2018-11-05T09:47:34.675Z,69.43
2018-11-05T09:48:38.289Z,75.00
2018-11-05T09:49:41.918Z,75.40
2018-11-05T09:50:45.524Z,71.70
2018-11-05T09:51:49.065Z,76.70
2018-11-05T09:52:52.664Z,72.13
2018-11-05T09:53:56.239Z,74.53
2018-11-05T09:54:59.818Z,76.60
2018-11-05T09:56:03.423Z,74.20
2018-11-05T09:57:07.063Z,71.50
2018-11-05T09:58:10.562Z,69.60
2018-11-05T09:59:14.247Z,78.57
2018-11-05T10:00:20.033Z,70.47
2018-11-05T10:01:23.654Z,77.23
2018-11-05T10:02:31.498Z,77.90
2018-11-05T10:03:40.728Z,70.30
2018-11-05T10:04:44.499Z,68.63
2018-11-05T10:05:47.792Z,74.20
2018-11-05T10:06:51.350Z,71.03
2018-11-05T10:07:54.940Z,70.10
2018-11-05T10:08:58.502Z,80.80
2018-11-05T10:10:02.102Z,72.80
2018-11-05T10:11:05.983Z,68.57
2018-11-05T10:12:09.490Z,67.60
2018-11-05T10:13:13.089Z,69.73
2018-11-05T10:14:16.745Z,73.27
2018-11-05T10:15:20.314Z,72.43
2018-11-05T10:16:23.937Z,74.23
2018-11-05T10:17:27.458Z,75.33
2018-11-05T10:18:31.110Z,70.27
2018-11-05T10:19:34.642Z,71.47
2018-11-05T10:20:38.288Z,75.93
2018-11-05T10:21:41.878Z,69.27
2018-11-05T10:22:45.877Z,70.40
2018-11-05T10:23:49.407Z,74.73
2018-11-05T10:24:53.335Z,78.67
2018-11-05T10:25:56.775Z,74.00
2018-11-05T10:27:00.343Z,76.47
2018-11-05T10:28:05.203Z,68.77
2018-11-05T10:29:08.789Z,71.53
2018-11-05T10:30:14.819Z,72.97
2018-11-05T10:31:25.008Z,71.73
2018-11-05T10:32:28.571Z,70.57
2018-11-05T10:33:32.254Z,74.30
2018-11-05T10:34:35.821Z,73.13
2018-11-05T10:35:57.143Z,75.10
2018-11-05T10:37:00.713Z,69.67
2018-11-05T10:38:04.290Z,79.30
2018-11-05T10:39:08.820Z,72.77
2018-11-05T10:40:16.492Z,72.50
2018-11-05T10:41:20.047Z,80.63
2018-11-05T10:42:23.635Z,75.37
2018-11-05T10:43:27.273Z,79.37
2018-11-05T10:44:30.844Z,74.43
2018-11-05T10:45:34.515Z,81.20
2018-11-05T10:46:38.055Z,72.73
2018-11-05T10:47:41.778Z,73.10
2018-11-05T10:48:45.384Z,71.70
2018-11-05T10:49:48.950Z,76.93
2018-11-05T10:50:52.542Z,77.57
2018-11-05T10:51:56.254Z,76.73
2018-11-05T10:52:59.692Z,77.67
2018-11-05T10:54:03.247Z,73.97
2018-11-05T10:55:07.019Z,78.30
2018-11-05T10:56:10.603Z,73.40
2018-11-05T10:57:14.163Z,75.67
2018-11-05T10:58:17.852Z,77.07
2018-11-05T10:59:21.332Z,76.93
2018-11-05T11:00:30.437Z,74.83
2018-11-05T11:01:39.574Z,80.87
2018-11-05T11:02:43.615Z,83.90
2018-11-05T11:03:52.811Z,85.40
2018-11-05T11:04:56.347Z,79.27
2018-11-05T11:06:00.076Z,85.03
2018-11-05T11:07:04.328Z,87.03
2018-11-05T11:08:07.911Z,93.27
2018-11-05T11:09:11.511Z,81.27
2018-11-05T11:10:15.114Z,85.30
2018-11-05T11:11:18.687Z,79.37
2018-11-05T11:12:22.266Z,86.20
2018-11-05T11:13:25.841Z,85.23
2018-11-05T11:14:29.995Z,75.60
2018-11-05T11:15:33.574Z,86.27
2018-11-05T11:16:37.151Z,88.60
2018-11-05T11:17:40.855Z,84.03
2018-11-05T11:18:44.423Z,87.07
2018-11-05T11:19:48.002Z,86.87
2018-11-05T11:20:51.572Z,80.73
2018-11-05T11:21:55.199Z,78.53
2018-11-05T11:22:58.738Z,91.83
2018-11-05T11:24:02.350Z,84.17
2018-11-05T11:25:06.753Z,87.57
2018-11-05T11:26:10.324Z,89.27
2018-11-05T11:27:13.907Z,87.80
2018-11-05T11:28:17.556Z,91.70
2018-11-05T11:29:21.347Z,89.90
2018-11-05T11:30:24.692Z,85.37
2018-11-05T11:31:28.266Z,89.87
2018-11-05T11:32:31.885Z,90.93
2018-11-05T11:33:35.439Z,89.30
2018-11-05T11:34:39.015Z,95.97
2018-11-05T11:35:42.620Z,94.07
2018-11-05T11:36:46.397Z,98.33
2018-11-05T11:37:49.827Z,101.37
2018-11-05T11:38:53.387Z,89.10
2018-11-05T11:39:56.995Z,89.70
2018-11-05T11:41:00.595Z,93.20
2018-11-05T11:42:04.303Z,99.87
2018-11-05T11:43:07.888Z,98.97
2018-11-05T11:44:11.512Z,94.20
2018-11-05T11:45:15.839Z,97.90
2018-11-05T11:46:19.432Z,93.50
2018-11-05T11:47:23.002Z,98.50
2018-11-05T11:48:26.562Z,87.87
2018-11-05T11:49:30.147Z,91.43
2018-11-05T11:50:33.744Z,95.37
2018-11-05T11:51:37.328Z,102.80
2018-11-05T11:52:41.024Z,94.07
2018-11-05T11:53:44.616Z,103.33
2018-11-05T11:54:48.159Z,103.37
2018-11-05T11:55:51.738Z,105.70
2018-11-05T11:56:55.339Z,101.17
2018-11-05T11:57:58.936Z,115.23
2018-11-05T11:59:02.543Z,112.50
2018-11-05T12:00:09.172Z,98.50
2018-11-05T12:01:12.742Z,113.37
2018-11-05T12:02:17.393Z,108.27
2018-11-05T12:03:20.983Z,103.17
2018-11-05T12:04:24.574Z,102.83
2018-11-05T12:05:28.287Z,113.97
2018-11-05T12:06:31.724Z,103.23
2018-11-05T12:07:35.305Z,110.83
2018-11-05T12:08:38.977Z,103.37
2018-11-05T12:09:42.514Z,117.77
2018-11-05T12:10:46.086Z,110.87
2018-11-05T12:11:49.670Z,103.03
2018-11-05T12:12:53.280Z,109.93
2018-11-05T12:13:56.898Z,111.53
2018-11-05T12:15:00.792Z,105.67
2018-11-05T12:16:04.094Z,106.87
2018-11-05T12:17:07.856Z,111.57
2018-11-05T12:18:11.467Z,111.43
2018-11-05T12:19:15.058Z,112.23
2018-11-05T12:20:19.817Z,115.37
2018-11-05T12:21:23.347Z,106.77
2018-11-05T12:22:26.927Z,110.50
2018-11-05T12:23:30.503Z,121.80
2018-11-05T12:24:34.141Z,116.60
2018-11-05T12:25:37.647Z,118.90
2018-11-05T12:26:41.225Z,120.87
2018-11-05T12:27:44.808Z,111.10
2018-11-05T12:28:48.395Z,114.37
2018-11-05T12:29:51.983Z,113.67
2018-11-05T12:30:55.599Z,122.53
2018-11-05T12:31:59.300Z,123.00
2018-11-05T12:33:02.841Z,115.53
2018-11-05T12:34:06.755Z,120.80
2018-11-05T12:35:11.315Z,116.37
2018-11-05T12:36:14.879Z,113.17
2018-11-05T12:37:18.466Z,116.07
2018-11-05T12:38:22.067Z,118.60
2018-11-05T12:39:25.663Z,117.90
2018-11-05T12:40:29.239Z,112.60
2018-11-05T12:41:32.816Z,119.27
2018-11-05T12:42:36.394Z,125.33
2018-11-05T12:43:39.980Z,120.07
2018-11-05T12:44:43.569Z,119.23
2018-11-05T12:45:47.200Z,126.07
2018-11-05T12:46:50.740Z,127.23
2018-11-05T12:47:54.314Z,126.50
2018-11-05T12:48:58.047Z,130.63
2018-11-05T12:50:01.647Z,124.50
2018-11-05T12:51:05.378Z,127.47
2018-11-05T12:52:08.942Z,127.57
2018-11-05T12:53:12.559Z,124.87
2018-11-05T12:54:16.160Z,120.50
2018-11-05T12:55:19.763Z,122.63
2018-11-05T12:56:23.375Z,135.87
2018-11-05T12:57:27.002Z,121.07
2018-11-05T12:58:30.552Z,120.37
2018-11-05T12:59:34.175Z,122.70
2018-11-05T13:00:37.876Z,122.87
2018-11-05T13:01:41.460Z,125.33
2018-11-05T13:02:49.359Z,134.27
2018-11-05T13:03:52.911Z,128.70
2018-11-05T13:04:56.479Z,124.43
2018-11-05T13:06:00.128Z,135.47
2018-11-05T13:07:03.703Z,126.13
2018-11-05T13:08:07.266Z,121.10
2018-11-05T13:09:10.844Z,129.93
2018-11-05T13:10:14.419Z,126.13
2018-11-05T13:11:18.027Z,140.57
2018-11-05T13:12:21.631Z,129.77
2018-11-05T13:13:25.203Z,137.53
2018-11-05T13:14:28.795Z,133.37
2018-11-05T13:15:32.403Z,124.47
2018-11-05T13:16:36.033Z,125.37
2018-11-05T13:17:40.211Z,134.17
2018-11-05T13:18:43.933Z,150.10
2018-11-05T13:19:47.480Z,131.87
2018-11-05T13:20:51.043Z,130.67
2018-11-05T13:21:54.700Z,138.33
2018-11-05T13:22:58.226Z,133.47
2018-11-05T13:24:01.874Z,143.50